sensor_id;sensor_type;location;lat;lon;timestamp;pressure;altitude;pressure_sealevel;temperature;humidity
9740;BME280;4909;42.680;26.324;2023-04-07T00:01:43;98294.22;;;8.36;50.36
9740;BME280;4909;42.680;26.324;2023-04-07T00:04:10;98287.06;;;8.38;51.04
9740;BME280;4909;42.680;26.324;2023-04-07T00:06:38;98286.41;;;8.54;50.35
9740;BME280;4909;42.680;26.324;2023-04-07T00:09:05;98281.25;;;8.51;49.72
9740;BME280;4909;42.680;26.324;2023-04-07T00:11:32;98280.56;;;8.46;49.52
9740;BME280;4909;42.680;26.324;2023-04-07T00:13:58;98292.78;;;8.49;50.14
9740;BME280;4909;42.680;26.324;2023-04-07T00:16:25;98294.81;;;8.64;49.90
9740;BME280;4909;42.680;26.324;2023-04-07T00:18:52;98289.25;;;8.70;49.76
9740;BME280;4909;42.680;26.324;2023-04-07T00:21:19;98290.69;;;8.77;48.76
9740;BME280;4909;42.680;26.324;2023-04-07T00:23:48;98290.03;;;8.72;48.93
9740;BME280;4909;42.680;26.324;2023-04-07T00:26:14;98296.59;;;8.84;49.26
9740;BME280;4909;42.680;26.324;2023-04-07T00:28:41;98296.56;;;8.85;49.73
9740;BME280;4909;42.680;26.324;2023-04-07T00:31:08;98287.28;;;8.95;48.81
9740;BME280;4909;42.680;26.324;2023-04-07T00:33:35;98295.41;;;9.11;49.62
9740;BME280;4909;42.680;26.324;2023-04-07T00:36:02;98285.63;;;9.13;49.51
9740;BME280;4909;42.680;26.324;2023-04-07T00:38:29;98304.84;;;9.16;48.88
9740;BME280;4909;42.680;26.324;2023-04-07T00:41:00;98294.22;;;8.98;49.15
9740;BME280;4909;42.680;26.324;2023-04-07T00:43:27;98302.41;;;8.92;50.50
9740;BME280;4909;42.680;26.324;2023-04-07T00:45:53;98281.91;;;8.97;50.58
9740;BME280;4909;42.680;26.324;2023-04-07T00:48:20;98297.59;;;9.01;49.49
9740;BME280;4909;42.680;26.324;2023-04-07T00:50:47;98308.13;;;9.03;49.86
9740;BME280;4909;42.680;26.324;2023-04-07T00:53:14;98318.50;;;9.07;50.09
9740;BME280;4909;42.680;26.324;2023-04-07T00:55:41;98316.91;;;9.24;49.17
9740;BME280;4909;42.680;26.324;2023-04-07T00:58:09;98302.56;;;9.29;50.05
9740;BME280;4909;42.680;26.324;2023-04-07T01:00:41;98299.06;;;9.47;47.16
9740;BME280;4909;42.680;26.324;2023-04-07T01:03:17;98307.88;;;9.48;47.03
9740;BME280;4909;42.680;26.324;2023-04-07T01:05:50;98305.91;;;9.33;46.77
9740;BME280;4909;42.680;26.324;2023-04-07T01:08:28;98301.63;;;9.49;46.94
9740;BME280;4909;42.680;26.324;2023-04-07T01:11:01;98301.72;;;9.66;46.26
9740;BME280;4909;42.680;26.324;2023-04-07T01:13:34;98255.06;;;9.25;46.25
9740;BME280;4909;42.680;26.324;2023-04-07T01:16:04;98309.63;;;9.68;46.03
9740;BME280;4909;42.680;26.324;2023-04-07T01:18:35;98310.78;;;9.42;45.92
9740;BME280;4909;42.680;26.324;2023-04-07T01:21:06;98302.63;;;9.07;46.91
9740;BME280;4909;42.680;26.324;2023-04-07T01:23:51;98308.97;;;9.03;46.58
9740;BME280;4909;42.680;26.324;2023-04-07T01:26:27;98311.69;;;9.02;46.75
9740;BME280;4909;42.680;26.324;2023-04-07T01:29:06;98282.91;;;8.94;46.01
9740;BME280;4909;42.680;26.324;2023-04-07T01:31:39;98314.72;;;9.13;46.03
9740;BME280;4909;42.680;26.324;2023-04-07T01:34:09;98312.84;;;9.15;46.55
9740;BME280;4909;42.680;26.324;2023-04-07T01:36:36;98319.28;;;9.30;45.55
9740;BME280;4909;42.680;26.324;2023-04-07T01:39:04;98302.00;;;9.21;45.17
9740;BME280;4909;42.680;26.324;2023-04-07T01:41:32;98303.31;;;9.31;45.89
9740;BME280;4909;42.680;26.324;2023-04-07T01:44:00;98316.16;;;9.20;45.74
9740;BME280;4909;42.680;26.324;2023-04-07T01:46:28;98312.94;;;9.13;46.20
9740;BME280;4909;42.680;26.324;2023-04-07T01:48:56;98311.94;;;9.16;45.61
9740;BME280;4909;42.680;26.324;2023-04-07T01:51:25;98300.47;;;9.15;44.67
9740;BME280;4909;42.680;26.324;2023-04-07T01:53:53;98311.16;;;9.14;45.09
9740;BME280;4909;42.680;26.324;2023-04-07T01:56:20;98301.34;;;9.16;44.93
9740;BME280;4909;42.680;26.324;2023-04-07T01:58:47;98306.66;;;9.16;45.22
9740;BME280;4909;42.680;26.324;2023-04-07T02:01:14;98300.78;;;9.09;45.17
9740;BME280;4909;42.680;26.324;2023-04-07T02:06:31;98317.53;;;8.90;46.82
9740;BME280;4909;42.680;26.324;2023-04-07T02:09:03;98319.50;;;8.85;45.47
9740;BME280;4909;42.680;26.324;2023-04-07T02:11:31;98308.91;;;8.85;44.86
9740;BME280;4909;42.680;26.324;2023-04-07T02:14:00;98319.06;;;8.95;45.41
9740;BME280;4909;42.680;26.324;2023-04-07T02:16:29;98318.84;;;9.00;45.36
9740;BME280;4909;42.680;26.324;2023-04-07T02:18:57;98309.69;;;9.07;44.63
9740;BME280;4909;42.680;26.324;2023-04-07T02:21:24;98329.19;;;9.25;44.59
9740;BME280;4909;42.680;26.324;2023-04-07T02:23:54;98323.78;;;9.28;44.75
9740;BME280;4909;42.680;26.324;2023-04-07T02:26:20;98315.03;;;9.46;45.21
9740;BME280;4909;42.680;26.324;2023-04-07T02:28:47;98298.34;;;9.44;43.90
9740;BME280;4909;42.680;26.324;2023-04-07T02:31:14;98328.66;;;9.57;44.88
9740;BME280;4909;42.680;26.324;2023-04-07T02:33:41;98327.84;;;9.55;44.67
9740;BME280;4909;42.680;26.324;2023-04-07T02:36:08;98333.81;;;9.40;44.55
9740;BME280;4909;42.680;26.324;2023-04-07T02:38:34;98333.81;;;9.40;43.65
9740;BME280;4909;42.680;26.324;2023-04-07T02:41:03;98341.09;;;9.55;43.65
9740;BME280;4909;42.680;26.324;2023-04-07T02:43:30;98343.38;;;9.44;43.81
9740;BME280;4909;42.680;26.324;2023-04-07T02:45:57;98345.38;;;9.39;44.07
9740;BME280;4909;42.680;26.324;2023-04-07T02:48:24;98337.69;;;9.33;43.55
9740;BME280;4909;42.680;26.324;2023-04-07T02:50:51;98349.25;;;9.50;43.63
9740;BME280;4909;42.680;26.324;2023-04-07T02:53:17;98348.53;;;9.27;44.06
9740;BME280;4909;42.680;26.324;2023-04-07T02:55:44;98347.00;;;9.01;44.70
9740;BME280;4909;42.680;26.324;2023-04-07T02:58:12;98346.91;;;9.04;44.16
9740;BME280;4909;42.680;26.324;2023-04-07T03:00:39;98351.63;;;8.96;44.63
9740;BME280;4909;42.680;26.324;2023-04-07T03:03:06;98342.97;;;8.92;45.10
9740;BME280;4909;42.680;26.324;2023-04-07T03:05:33;98338.34;;;8.97;43.93
9740;BME280;4909;42.680;26.324;2023-04-07T03:08:00;98351.28;;;9.05;43.97
9740;BME280;4909;42.680;26.324;2023-04-07T03:10:26;98350.66;;;8.98;43.58
9740;BME280;4909;42.680;26.324;2023-04-07T03:12:53;98351.84;;;9.11;43.03
9740;BME280;4909;42.680;26.324;2023-04-07T03:15:21;98351.84;;;9.11;43.07
9740;BME280;4909;42.680;26.324;2023-04-07T03:17:48;98347.88;;;9.22;43.96
9740;BME280;4909;42.680;26.324;2023-04-07T03:20:15;98349.22;;;9.32;43.53
9740;BME280;4909;42.680;26.324;2023-04-07T03:22:42;98340.81;;;9.02;43.07
9740;BME280;4909;42.680;26.324;2023-04-07T03:25:09;98362.38;;;9.13;43.51
9740;BME280;4909;42.680;26.324;2023-04-07T03:27:36;98352.41;;;9.20;43.20
9740;BME280;4909;42.680;26.324;2023-04-07T03:30:03;98353.19;;;9.22;42.55
9740;BME280;4909;42.680;26.324;2023-04-07T03:32:32;98360.16;;;9.24;42.59
9740;BME280;4909;42.680;26.324;2023-04-07T03:34:58;98362.97;;;9.40;42.61
9740;BME280;4909;42.680;26.324;2023-04-07T03:37:25;98360.72;;;9.51;41.73
9740;BME280;4909;42.680;26.324;2023-04-07T03:39:52;98362.19;;;9.38;41.81
9740;BME280;4909;42.680;26.324;2023-04-07T03:42:19;98360.88;;;9.28;42.04
9740;BME280;4909;42.680;26.324;2023-04-07T03:44:45;98362.91;;;9.41;41.45
9740;BME280;4909;42.680;26.324;2023-04-07T03:47:12;98366.56;;;9.19;41.77
9740;BME280;4909;42.680;26.324;2023-04-07T03:49:40;98363.38;;;9.31;42.16
9740;BME280;4909;42.680;26.324;2023-04-07T03:52:07;98374.59;;;9.56;41.58
9740;BME280;4909;42.680;26.324;2023-04-07T03:54:34;98370.38;;;9.52;40.83
9740;BME280;4909;42.680;26.324;2023-04-07T03:57:01;98373.50;;;9.41;41.38
9740;BME280;4909;42.680;26.324;2023-04-07T03:59:28;98373.09;;;9.30;41.22
9740;BME280;4909;42.680;26.324;2023-04-07T04:01:55;98375.28;;;9.41;41.00
9740;BME280;4909;42.680;26.324;2023-04-07T04:04:21;98340.34;;;9.33;42.01
9740;BME280;4909;42.680;26.324;2023-04-07T04:06:50;98376.81;;;9.46;41.32
9740;BME280;4909;42.680;26.324;2023-04-07T04:09:17;98379.69;;;9.60;41.33
9740;BME280;4909;42.680;26.324;2023-04-07T04:11:45;98375.09;;;9.45;41.18
9740;BME280;4909;42.680;26.324;2023-04-07T04:14:12;98374.41;;;9.60;41.43
9740;BME280;4909;42.680;26.324;2023-04-07T04:16:38;98370.78;;;9.63;40.93
9740;BME280;4909;42.680;26.324;2023-04-07T04:19:05;98380.31;;;9.86;41.43
9740;BME280;4909;42.680;26.324;2023-04-07T04:21:32;98388.94;;;9.91;40.10
9740;BME280;4909;42.680;26.324;2023-04-07T04:24:00;98389.91;;;10.07;39.92
9740;BME280;4909;42.680;26.324;2023-04-07T04:26:27;98387.41;;;10.24;39.33
9740;BME280;4909;42.680;26.324;2023-04-07T04:28:54;98392.75;;;10.23;39.51
9740;BME280;4909;42.680;26.324;2023-04-07T04:31:20;98373.78;;;9.93;38.92
9740;BME280;4909;42.680;26.324;2023-04-07T04:33:47;98397.75;;;9.91;39.32
9740;BME280;4909;42.680;26.324;2023-04-07T04:36:14;98397.38;;;9.80;39.77
9740;BME280;4909;42.680;26.324;2023-04-07T04:38:41;98386.19;;;9.92;38.86
9740;BME280;4909;42.680;26.324;2023-04-07T04:41:09;98403.38;;;9.84;38.92
9740;BME280;4909;42.680;26.324;2023-04-07T04:43:36;98404.84;;;9.91;39.93
9740;BME280;4909;42.680;26.324;2023-04-07T04:46:05;98397.50;;;9.77;39.16
9740;BME280;4909;42.680;26.324;2023-04-07T04:48:32;98409.16;;;9.73;39.55
9740;BME280;4909;42.680;26.324;2023-04-07T04:50:59;98417.16;;;9.92;39.75
9740;BME280;4909;42.680;26.324;2023-04-07T04:53:25;98414.13;;;9.81;39.91
9740;BME280;4909;42.680;26.324;2023-04-07T04:55:53;98408.66;;;9.65;39.71
9740;BME280;4909;42.680;26.324;2023-04-07T04:58:21;98421.44;;;9.55;39.71
9740;BME280;4909;42.680;26.324;2023-04-07T05:00:48;98420.56;;;9.75;40.54
9740;BME280;4909;42.680;26.324;2023-04-07T05:03:15;98423.28;;;9.92;40.14
9740;BME280;4909;42.680;26.324;2023-04-07T05:05:42;98428.97;;;10.03;40.22
9740;BME280;4909;42.680;26.324;2023-04-07T05:08:10;98434.06;;;10.08;39.14
9740;BME280;4909;42.680;26.324;2023-04-07T05:10:37;98435.53;;;10.15;39.94
9740;BME280;4909;42.680;26.324;2023-04-07T05:13:04;98427.81;;;9.90;40.34
9740;BME280;4909;42.680;26.324;2023-04-07T05:15:51;98437.22;;;9.97;39.73
9740;BME280;4909;42.680;26.324;2023-04-07T05:18:18;98432.34;;;10.07;38.77
9740;BME280;4909;42.680;26.324;2023-04-07T05:20:47;98434.88;;;10.10;38.76
9740;BME280;4909;42.680;26.324;2023-04-07T05:23:14;98445.03;;;10.21;39.58
9740;BME280;4909;42.680;26.324;2023-04-07T05:25:41;98454.94;;;10.36;38.79
9740;BME280;4909;42.680;26.324;2023-04-07T05:28:08;98444.31;;;10.36;38.57
9740;BME280;4909;42.680;26.324;2023-04-07T05:30:34;98459.66;;;10.48;38.54
9740;BME280;4909;42.680;26.324;2023-04-07T05:33:03;98454.41;;;10.65;37.74
9740;BME280;4909;42.680;26.324;2023-04-07T05:35:29;98468.91;;;10.58;37.38
9740;BME280;4909;42.680;26.324;2023-04-07T05:37:56;98464.66;;;10.73;36.80
9740;BME280;4909;42.680;26.324;2023-04-07T05:40:23;98459.72;;;10.46;37.62
9740;BME280;4909;42.680;26.324;2023-04-07T05:42:50;98461.59;;;10.44;38.20
9740;BME280;4909;42.680;26.324;2023-04-07T05:45:16;98468.97;;;10.19;39.01
9740;BME280;4909;42.680;26.324;2023-04-07T05:47:43;98461.06;;;10.36;39.20
9740;BME280;4909;42.680;26.324;2023-04-07T05:50:12;98459.66;;;10.48;39.36
9740;BME280;4909;42.680;26.324;2023-04-07T05:52:39;98475.72;;;10.45;40.19
9740;BME280;4909;42.680;26.324;2023-04-07T05:55:07;98474.28;;;10.38;42.30
9740;BME280;4909;42.680;26.324;2023-04-07T05:57:34;98458.94;;;9.46;50.59
9740;BME280;4909;42.680;26.324;2023-04-07T06:00:01;98478.72;;;8.74;54.77
9740;BME280;4909;42.680;26.324;2023-04-07T06:02:28;98483.25;;;8.70;56.23
9740;BME280;4909;42.680;26.324;2023-04-07T06:04:55;98472.59;;;8.50;57.77
9740;BME280;4909;42.680;26.324;2023-04-07T06:07:23;98478.38;;;8.60;58.81
9740;BME280;4909;42.680;26.324;2023-04-07T06:09:50;98483.00;;;8.98;58.16
9740;BME280;4909;42.680;26.324;2023-04-07T06:12:17;98463.41;;;9.24;56.24
9740;BME280;4909;42.680;26.324;2023-04-07T06:14:45;98473.88;;;9.27;55.98
9740;BME280;4909;42.680;26.324;2023-04-07T06:17:16;98476.75;;;8.79;57.95
9740;BME280;4909;42.680;26.324;2023-04-07T06:19:43;98455.50;;;8.59;58.02
9740;BME280;4909;42.680;26.324;2023-04-07T06:22:10;98462.38;;;8.63;57.51
9740;BME280;4909;42.680;26.324;2023-04-07T06:24:38;98485.41;;;8.83;57.92
9740;BME280;4909;42.680;26.324;2023-04-07T06:27:05;98488.50;;;9.36;55.89
9740;BME280;4909;42.680;26.324;2023-04-07T06:29:32;98479.13;;;9.69;55.55
9740;BME280;4909;42.680;26.324;2023-04-07T06:31:59;98493.38;;;9.67;52.64
9740;BME280;4909;42.680;26.324;2023-04-07T06:34:26;98493.84;;;9.96;53.86
9740;BME280;4909;42.680;26.324;2023-04-07T06:36:53;98506.47;;;10.10;53.91
9740;BME280;4909;42.680;26.324;2023-04-07T06:39:20;98509.28;;;9.87;52.29
9740;BME280;4909;42.680;26.324;2023-04-07T06:41:48;98511.28;;;9.82;51.64
9740;BME280;4909;42.680;26.324;2023-04-07T06:44:15;98511.28;;;9.82;52.77
9740;BME280;4909;42.680;26.324;2023-04-07T06:46:41;98507.22;;;9.93;54.70
9740;BME280;4909;42.680;26.324;2023-04-07T06:49:08;98501.00;;;9.74;51.59
9740;BME280;4909;42.680;26.324;2023-04-07T06:51:36;98504.72;;;9.90;52.07
9740;BME280;4909;42.680;26.324;2023-04-07T06:54:03;98516.91;;;9.94;51.99
9740;BME280;4909;42.680;26.324;2023-04-07T06:56:32;98515.91;;;9.97;51.19
9740;BME280;4909;42.680;26.324;2023-04-07T06:59:00;98518.66;;;10.14;50.78
9740;BME280;4909;42.680;26.324;2023-04-07T07:01:27;98520.31;;;10.37;50.74
9740;BME280;4909;42.680;26.324;2023-04-07T07:03:53;98518.34;;;10.22;49.40
9740;BME280;4909;42.680;26.324;2023-04-07T07:06:20;98520.81;;;10.06;49.41
9740;BME280;4909;42.680;26.324;2023-04-07T07:08:47;98529.28;;;10.14;50.72
9740;BME280;4909;42.680;26.324;2023-04-07T07:11:14;98535.16;;;10.41;50.27
9740;BME280;4909;42.680;26.324;2023-04-07T07:13:40;98536.00;;;10.41;50.43
9740;BME280;4909;42.680;26.324;2023-04-07T07:16:08;98537.56;;;10.27;51.16
9740;BME280;4909;42.680;26.324;2023-04-07T07:18:36;98527.41;;;10.36;50.76
9740;BME280;4909;42.680;26.324;2023-04-07T07:21:03;98514.72;;;10.24;51.53
9740;BME280;4909;42.680;26.324;2023-04-07T07:23:30;98534.97;;;10.45;51.46
9740;BME280;4909;42.680;26.324;2023-04-07T07:25:58;98538.41;;;10.66;51.12
9740;BME280;4909;42.680;26.324;2023-04-07T07:28:25;98544.03;;;10.21;53.07
9740;BME280;4909;42.680;26.324;2023-04-07T07:30:53;98548.19;;;9.86;53.31
9740;BME280;4909;42.680;26.324;2023-04-07T07:33:21;98545.78;;;10.00;53.50
9740;BME280;4909;42.680;26.324;2023-04-07T07:35:48;98553.34;;;10.10;53.92
9740;BME280;4909;42.680;26.324;2023-04-07T07:38:15;98560.41;;;10.31;53.33
9740;BME280;4909;42.680;26.324;2023-04-07T07:40:41;98531.41;;;10.06;53.13
9740;BME280;4909;42.680;26.324;2023-04-07T07:43:08;98564.69;;;10.33;53.10
9740;BME280;4909;42.680;26.324;2023-04-07T07:45:35;98558.03;;;10.43;52.85
9740;BME280;4909;42.680;26.324;2023-04-07T07:48:02;98565.28;;;10.40;52.88
9740;BME280;4909;42.680;26.324;2023-04-07T07:50:30;98566.47;;;10.13;53.99
9740;BME280;4909;42.680;26.324;2023-04-07T07:52:57;98563.88;;;9.91;54.12
9740;BME280;4909;42.680;26.324;2023-04-07T07:55:23;98569.44;;;9.85;54.86
9740;BME280;4909;42.680;26.324;2023-04-07T07:57:50;98571.16;;;10.46;53.10
9740;BME280;4909;42.680;26.324;2023-04-07T08:00:17;98574.03;;;10.42;53.45
9740;BME280;4909;42.680;26.324;2023-04-07T08:02:44;98570.66;;;10.38;53.99
9740;BME280;4909;42.680;26.324;2023-04-07T08:05:11;98514.75;;;10.23;53.33
9740;BME280;4909;42.680;26.324;2023-04-07T08:07:39;98577.88;;;10.55;52.68
9740;BME280;4909;42.680;26.324;2023-04-07T08:10:08;98574.94;;;10.80;52.28
9740;BME280;4909;42.680;26.324;2023-04-07T08:12:35;98588.56;;;11.10;50.67
9740;BME280;4909;42.680;26.324;2023-04-07T08:15:01;98579.28;;;11.18;49.85
9740;BME280;4909;42.680;26.324;2023-04-07T08:17:28;98592.56;;;11.18;49.72
9740;BME280;4909;42.680;26.324;2023-04-07T08:19:55;98580.16;;;11.19;49.30
9740;BME280;4909;42.680;26.324;2023-04-07T08:22:21;98590.63;;;11.41;48.28
9740;BME280;4909;42.680;26.324;2023-04-07T08:24:50;98588.50;;;11.66;46.90
9740;BME280;4909;42.680;26.324;2023-04-07T08:27:16;98588.53;;;12.17;45.80
9740;BME280;4909;42.680;26.324;2023-04-07T08:29:43;98590.59;;;12.62;43.92
9740;BME280;4909;42.680;26.324;2023-04-07T08:32:10;98587.69;;;12.34;43.19
9740;BME280;4909;42.680;26.324;2023-04-07T08:34:37;98577.56;;;12.41;42.69
9740;BME280;4909;42.680;26.324;2023-04-07T08:37:03;98575.53;;;12.94;42.14
9740;BME280;4909;42.680;26.324;2023-04-07T08:39:30;98580.53;;;13.00;41.77
9740;BME280;4909;42.680;26.324;2023-04-07T08:41:59;98584.22;;;13.61;41.16
9740;BME280;4909;42.680;26.324;2023-04-07T08:44:27;98574.66;;;14.32;37.28
9740;BME280;4909;42.680;26.324;2023-04-07T08:46:56;98585.69;;;14.56;36.48
9740;BME280;4909;42.680;26.324;2023-04-07T08:49:27;98570.34;;;14.59;35.83
9740;BME280;4909;42.680;26.324;2023-04-07T08:51:55;98593.38;;;14.02;36.67
9740;BME280;4909;42.680;26.324;2023-04-07T08:54:23;98592.34;;;13.28;38.31
9740;BME280;4909;42.680;26.324;2023-04-07T08:56:50;98593.72;;;12.71;41.04
9740;BME280;4909;42.680;26.324;2023-04-07T08:59:20;98593.50;;;12.58;41.35
9740;BME280;4909;42.680;26.324;2023-04-07T09:01:51;98593.41;;;12.92;41.46
9740;BME280;4909;42.680;26.324;2023-04-07T09:04:18;98596.88;;;13.10;41.41
9740;BME280;4909;42.680;26.324;2023-04-07T09:06:47;98591.50;;;12.94;41.04
9740;BME280;4909;42.680;26.324;2023-04-07T09:09:14;98590.19;;;13.34;40.77
9740;BME280;4909;42.680;26.324;2023-04-07T09:11:41;98589.47;;;13.78;39.59
9740;BME280;4909;42.680;26.324;2023-04-07T09:14:08;98591.09;;;13.80;39.53
9740;BME280;4909;42.680;26.324;2023-04-07T09:16:37;98584.16;;;13.62;39.57
9740;BME280;4909;42.680;26.324;2023-04-07T09:19:03;98592.72;;;13.83;40.28
9740;BME280;4909;42.680;26.324;2023-04-07T09:21:46;98597.66;;;14.05;38.75
9740;BME280;4909;42.680;26.324;2023-04-07T09:24:20;98590.97;;;14.27;37.76
9740;BME280;4909;42.680;26.324;2023-04-07T09:26:47;98587.31;;;14.58;37.70
9740;BME280;4909;42.680;26.324;2023-04-07T09:29:18;98593.09;;;15.21;36.35
9740;BME280;4909;42.680;26.324;2023-04-07T09:31:47;98583.13;;;15.52;36.11
9740;BME280;4909;42.680;26.324;2023-04-07T09:34:24;98588.81;;;15.19;36.83
9740;BME280;4909;42.680;26.324;2023-04-07T09:36:51;98583.59;;;14.61;38.76
9740;BME280;4909;42.680;26.324;2023-04-07T09:39:17;98593.72;;;14.70;38.17
9740;BME280;4909;42.680;26.324;2023-04-07T09:41:45;98594.94;;;14.20;37.84
9740;BME280;4909;42.680;26.324;2023-04-07T09:44:12;98589.06;;;14.00;39.05
9740;BME280;4909;42.680;26.324;2023-04-07T09:46:49;98585.00;;;14.08;39.38
9740;BME280;4909;42.680;26.324;2023-04-07T09:49:16;98590.19;;;14.25;39.59
9740;BME280;4909;42.680;26.324;2023-04-07T09:51:55;98586.91;;;14.36;39.48
9740;BME280;4909;42.680;26.324;2023-04-07T09:54:32;98594.47;;;15.00;38.63
9740;BME280;4909;42.680;26.324;2023-04-07T09:57:01;98590.44;;;15.21;38.62
9740;BME280;4909;42.680;26.324;2023-04-07T09:59:30;98588.78;;;15.33;38.04
9740;BME280;4909;42.680;26.324;2023-04-07T10:01:58;98583.41;;;14.64;38.58
9740;BME280;4909;42.680;26.324;2023-04-07T10:04:26;98584.47;;;14.75;39.26
9740;BME280;4909;42.680;26.324;2023-04-07T10:06:54;98585.47;;;15.01;38.71
9740;BME280;4909;42.680;26.324;2023-04-07T10:09:22;98580.13;;;15.30;38.49
9740;BME280;4909;42.680;26.324;2023-04-07T10:11:50;98580.94;;;14.31;39.80
9740;BME280;4909;42.680;26.324;2023-04-07T10:14:18;98590.09;;;14.27;40.83
9740;BME280;4909;42.680;26.324;2023-04-07T10:16:46;98581.59;;;14.50;39.62
9740;BME280;4909;42.680;26.324;2023-04-07T10:19:14;98572.50;;;14.53;38.88
9740;BME280;4909;42.680;26.324;2023-04-07T10:21:42;98566.50;;;14.77;37.70
9740;BME280;4909;42.680;26.324;2023-04-07T10:24:18;98580.81;;;15.05;38.75
9740;BME280;4909;42.680;26.324;2023-04-07T10:26:56;98583.72;;;15.43;38.18
9740;BME280;4909;42.680;26.324;2023-04-07T10:29:24;98584.56;;;15.43;36.91
9740;BME280;4909;42.680;26.324;2023-04-07T10:31:51;98586.97;;;15.34;36.77
9740;BME280;4909;42.680;26.324;2023-04-07T10:37:20;98593.69;;;15.68;36.91
9740;BME280;4909;42.680;26.324;2023-04-07T10:39:49;98588.84;;;15.46;37.35
9740;BME280;4909;42.680;26.324;2023-04-07T10:42:49;98588.63;;;15.08;38.58
9740;BME280;4909;42.680;26.324;2023-04-07T10:45:16;98584.34;;;15.46;38.43
9740;BME280;4909;42.680;26.324;2023-04-07T10:48:09;98548.63;;;15.61;38.86
9740;BME280;4909;42.680;26.324;2023-04-07T10:50:37;98583.09;;;15.66;38.94
9740;BME280;4909;42.680;26.324;2023-04-07T10:53:06;98581.34;;;15.38;39.98
9740;BME280;4909;42.680;26.324;2023-04-07T10:55:35;98577.28;;;15.45;40.17
9740;BME280;4909;42.680;26.324;2023-04-07T10:58:16;98581.59;;;15.48;39.84
9740;BME280;4909;42.680;26.324;2023-04-07T11:03:54;98577.09;;;14.51;42.78
9740;BME280;4909;42.680;26.324;2023-04-07T11:06:22;98579.84;;;14.49;44.23
9740;BME280;4909;42.680;26.324;2023-04-07T11:08:50;98585.31;;;14.90;44.43
9740;BME280;4909;42.680;26.324;2023-04-07T11:11:33;98579.88;;;13.89;44.95
9740;BME280;4909;42.680;26.324;2023-04-07T11:14:01;98585.22;;;13.44;45.19
9740;BME280;4909;42.680;26.324;2023-04-07T11:16:35;98583.47;;;13.27;46.18
9740;BME280;4909;42.680;26.324;2023-04-07T11:19:02;98579.94;;;13.42;46.53
9740;BME280;4909;42.680;26.324;2023-04-07T11:21:29;98581.41;;;13.32;46.20
9740;BME280;4909;42.680;26.324;2023-04-07T11:23:57;98576.81;;;13.81;45.91
9740;BME280;4909;42.680;26.324;2023-04-07T11:26:24;98572.00;;;13.72;45.11
9740;BME280;4909;42.680;26.324;2023-04-07T11:28:53;98574.59;;;14.04;43.64
9740;BME280;4909;42.680;26.324;2023-04-07T11:31:23;98577.47;;;14.15;42.84
9740;BME280;4909;42.680;26.324;2023-04-07T11:33:52;98567.59;;;14.31;42.73
9740;BME280;4909;42.680;26.324;2023-04-07T11:36:25;98573.94;;;14.58;40.39
9740;BME280;4909;42.680;26.324;2023-04-07T11:38:53;98568.53;;;14.60;40.62
9740;BME280;4909;42.680;26.324;2023-04-07T11:41:21;98573.94;;;14.72;40.45
9740;BME280;4909;42.680;26.324;2023-04-07T11:43:48;98575.19;;;14.53;39.44
9740;BME280;4909;42.680;26.324;2023-04-07T11:46:16;98558.13;;;14.41;39.42
9740;BME280;4909;42.680;26.324;2023-04-07T11:48:44;98572.78;;;14.76;39.71
9740;BME280;4909;42.680;26.324;2023-04-07T11:51:15;98576.44;;;14.90;38.54
9740;BME280;4909;42.680;26.324;2023-04-07T11:53:42;98577.31;;;14.90;37.45
9740;BME280;4909;42.680;26.324;2023-04-07T11:56:14;98538.78;;;14.08;38.72
9740;BME280;4909;42.680;26.324;2023-04-07T11:58:47;98580.84;;;14.18;38.78
9740;BME280;4909;42.680;26.324;2023-04-07T12:01:14;98584.53;;;14.16;39.18
9740;BME280;4909;42.680;26.324;2023-04-07T12:03:55;98576.53;;;14.60;37.44
9740;BME280;4909;42.680;26.324;2023-04-07T12:06:26;98575.78;;;15.00;37.17
9740;BME280;4909;42.680;26.324;2023-04-07T12:08:55;98578.34;;;14.45;37.39
9740;BME280;4909;42.680;26.324;2023-04-07T12:11:22;98579.47;;;14.41;37.83
9740;BME280;4909;42.680;26.324;2023-04-07T12:13:50;98580.34;;;14.70;37.75
9740;BME280;4909;42.680;26.324;2023-04-07T12:16:17;98573.34;;;14.39;36.73
9740;BME280;4909;42.680;26.324;2023-04-07T12:18:44;98590.06;;;14.13;38.20
9740;BME280;4909;42.680;26.324;2023-04-07T12:21:11;98565.28;;;14.25;38.10
9740;BME280;4909;42.680;26.324;2023-04-07T12:23:38;98592.00;;;14.25;37.73
9740;BME280;4909;42.680;26.324;2023-04-07T12:26:05;98590.25;;;14.24;36.89
9740;BME280;4909;42.680;26.324;2023-04-07T12:28:32;98581.78;;;14.17;37.04
9740;BME280;4909;42.680;26.324;2023-04-07T12:31:01;98575.53;;;14.32;36.74
9740;BME280;4909;42.680;26.324;2023-04-07T12:33:28;98584.38;;;13.89;37.52
9740;BME280;4909;42.680;26.324;2023-04-07T12:35:55;98580.63;;;13.62;37.87
9740;BME280;4909;42.680;26.324;2023-04-07T12:38:22;98588.63;;;13.62;38.20
9740;BME280;4909;42.680;26.324;2023-04-07T12:40:49;98585.63;;;13.52;38.94
9740;BME280;4909;42.680;26.324;2023-04-07T12:43:16;98578.47;;;13.53;39.42
9740;BME280;4909;42.680;26.324;2023-04-07T12:45:43;98577.47;;;13.24;39.59
9740;BME280;4909;42.680;26.324;2023-04-07T12:48:11;98584.53;;;13.40;39.88
9740;BME280;4909;42.680;26.324;2023-04-07T12:50:38;98552.16;;;13.62;39.09
9740;BME280;4909;42.680;26.324;2023-04-07T12:53:05;98577.38;;;13.86;38.89
9740;BME280;4909;42.680;26.324;2023-04-07T12:55:32;98568.41;;;14.03;38.23
9740;BME280;4909;42.680;26.324;2023-04-07T12:58:00;98575.31;;;14.35;38.59
9740;BME280;4909;42.680;26.324;2023-04-07T13:00:27;98573.78;;;14.47;37.57
9740;BME280;4909;42.680;26.324;2023-04-07T13:02:54;98573.88;;;14.30;36.89
9740;BME280;4909;42.680;26.324;2023-04-07T13:05:22;98582.25;;;14.24;37.33
9740;BME280;4909;42.680;26.324;2023-04-07T13:07:49;98565.19;;;14.12;37.74
9740;BME280;4909;42.680;26.324;2023-04-07T13:10:15;98568.75;;;13.97;38.31
9740;BME280;4909;42.680;26.324;2023-04-07T13:12:42;98569.94;;;14.07;37.72
9740;BME280;4909;42.680;26.324;2023-04-07T13:15:09;98571.44;;;13.52;39.30
9740;BME280;4909;42.680;26.324;2023-04-07T13:17:36;98564.75;;;13.44;40.15
9740;BME280;4909;42.680;26.324;2023-04-07T13:20:03;98575.63;;;13.56;39.31
9740;BME280;4909;42.680;26.324;2023-04-07T13:22:32;98575.94;;;13.81;39.15
9740;BME280;4909;42.680;26.324;2023-04-07T13:24:59;98576.00;;;13.49;40.26
9740;BME280;4909;42.680;26.324;2023-04-07T13:27:25;98564.56;;;13.47;39.83
9740;BME280;4909;42.680;26.324;2023-04-07T13:29:52;98564.72;;;13.60;39.98